Terminal Aerodrome Forecast
Issued by NWS Bismarck, ND

Home | Current Version | Previous Version | Graphics & Text | Print | Product List | Glossary On
Versions: 1 2 3 4 5 6 7 8 9 10 11 12 13 14 15 16 17 18 19 20 21
152
FTUS43 KBIS 191129
TAFISN
TAF
KISN 191129Z 1912/2012 24010KT P6SM SCT250
     FM192300 21006KT P6SM FEW250
     FM200900 21007KT P6SM SCT250 WS020/27040KT=

USA.gov is the U.S. government's official web portal to all federal, state and local government web resources and services.